createdAt,value
2022-11-29T00:04:50.055Z,0.34
2022-11-29T00:10:11.813Z,0.30
2022-11-29T00:15:37.891Z,0.29
2022-11-29T00:21:00.075Z,0.23
2022-11-29T00:26:22.351Z,0.13
2022-11-29T00:31:44.788Z,0.06
2022-11-29T00:37:06.410Z,0.02
2022-11-29T00:42:28.340Z,-0.03
2022-11-29T00:47:50.561Z,-0.05
2022-11-29T00:53:12.364Z,-0.06
2022-11-29T00:58:35.989Z,-0.10
2022-11-29T01:03:57.964Z,-0.16
2022-11-29T01:09:21.099Z,-0.16
2022-11-29T01:14:43.921Z,-0.15
2022-11-29T01:20:08.515Z,-0.15
2022-11-29T01:25:32.314Z,-0.17
2022-11-29T01:30:54.361Z,-0.18
2022-11-29T01:36:16.425Z,-0.19
2022-11-29T01:41:38.497Z,-0.18
2022-11-29T01:47:00.286Z,-0.15
2022-11-29T01:52:26.870Z,-0.20
2022-11-29T01:57:48.598Z,-0.23
2022-11-29T02:03:13.059Z,-0.23
2022-11-29T02:08:41.198Z,-0.24
2022-11-29T02:14:09.537Z,-0.26
2022-11-29T02:20:06.393Z,-0.23
2022-11-29T02:25:55.314Z,-0.20
2022-11-29T02:31:44.541Z,-0.19
2022-11-29T02:37:12.591Z,-0.21
2022-11-29T02:42:56.558Z,-0.22
2022-11-29T02:48:51.044Z,-0.24
2022-11-29T02:54:26.818Z,-0.25
2022-11-29T03:00:04.005Z,-0.22
2022-11-29T03:05:47.972Z,-0.18
2022-11-29T03:11:48.118Z,-0.18
2022-11-29T03:17:26.559Z,-0.19
2022-11-29T03:23:15.295Z,-0.19
2022-11-29T03:28:40.289Z,-0.29
2022-11-29T03:34:28.726Z,-0.39
2022-11-29T03:40:03.385Z,-0.45
2022-11-29T03:45:41.314Z,-0.39
2022-11-29T03:51:07.749Z,-0.36
2022-11-29T03:56:38.416Z,-0.37
2022-11-29T04:02:46.980Z,-0.37
2022-11-29T04:08:14.924Z,-0.33
2022-11-29T04:14:08.090Z,-0.31
2022-11-29T04:20:05.644Z,-0.32
2022-11-29T04:25:55.074Z,-0.30
2022-11-29T04:31:32.639Z,-0.31
2022-11-29T04:37:15.060Z,-0.34
2022-11-29T04:43:01.673Z,-0.35
2022-11-29T04:48:43.772Z,-0.35
2022-11-29T04:54:12.122Z,-0.32
2022-11-29T04:59:47.833Z,-0.33
2022-11-29T05:05:24.785Z,-0.29
2022-11-29T05:11:02.751Z,-0.37
2022-11-29T05:16:49.199Z,-0.44
2022-11-29T05:22:41.629Z,-0.47
2022-11-29T05:28:58.242Z,-0.47
2022-11-29T05:34:35.740Z,-0.52
2022-11-29T05:40:26.659Z,-0.55
2022-11-29T05:46:03.893Z,-0.58
2022-11-29T05:51:39.517Z,-0.65
2022-11-29T05:57:22.316Z,-0.71
2022-11-29T06:03:03.599Z,-0.72
2022-11-29T06:08:30.047Z,-0.64
2022-11-29T06:14:09.820Z,-0.44
2022-11-29T06:19:40.620Z,-0.51
2022-11-29T06:25:16.957Z,-0.72
2022-11-29T06:31:04.458Z,-0.81
2022-11-29T06:36:32.234Z,-0.98
2022-11-29T06:41:53.890Z,-1.07
2022-11-29T06:47:39.842Z,-1.13
2022-11-29T06:53:16.691Z,-1.06
2022-11-29T06:59:04.708Z,-1.03
2022-11-29T07:04:32.660Z,-0.98
2022-11-29T07:09:59.648Z,-0.91
2022-11-29T07:15:23.403Z,-0.83
2022-11-29T07:20:48.081Z,-0.68
2022-11-29T07:26:14.982Z,-0.50
2022-11-29T07:32:05.957Z,-0.48
2022-11-29T07:37:37.388Z,-0.16
2022-11-29T07:43:11.392Z,0.12
2022-11-29T07:48:33.321Z,0.08
2022-11-29T07:53:55.352Z,0.19
2022-11-29T07:59:17.162Z,0.49
2022-11-29T08:04:45.956Z,0.43
2022-11-29T08:10:14.836Z,0.48
2022-11-29T08:15:37.222Z,0.52
2022-11-29T08:20:59.047Z,0.48
2022-11-29T08:26:25.460Z,0.42
2022-11-29T08:31:53.845Z,0.47
2022-11-29T08:37:15.706Z,0.61
2022-11-29T08:42:37.702Z,0.68
2022-11-29T08:47:59.627Z,0.83
2022-11-29T08:53:40.377Z,0.93
2022-11-29T08:59:02.679Z,1.05
2022-11-29T09:04:24.547Z,1.23
2022-11-29T09:09:46.216Z,1.28
2022-11-29T09:15:10.255Z,1.42
2022-11-29T09:20:32.928Z,1.44
2022-11-29T09:25:55.616Z,1.47
2022-11-29T09:31:17.820Z,1.52
2022-11-29T09:36:40.347Z,1.65
2022-11-29T09:42:12.728Z,1.89
2022-11-29T09:48:06.987Z,2.08
2022-11-29T09:53:35.533Z,2.22
2022-11-29T09:59:00.453Z,2.38
2022-11-29T10:04:27.062Z,2.50
2022-11-29T10:10:01.899Z,2.58
2022-11-29T10:15:27.509Z,2.78
2022-11-29T10:20:51.202Z,2.87
2022-11-29T10:26:13.032Z,2.88
2022-11-29T10:31:42.944Z,2.98
2022-11-29T10:37:04.799Z,3.05
2022-11-29T10:42:46.653Z,3.11
2022-11-29T10:48:15.702Z,3.25
2022-11-29T10:53:37.580Z,3.41
2022-11-29T10:59:06.286Z,3.52
2022-11-29T11:04:34.775Z,3.65
2022-11-29T11:09:57.372Z,3.63
2022-11-29T11:15:30.211Z,3.59
2022-11-29T11:20:57.993Z,3.58
2022-11-29T11:26:20.661Z,3.67
2022-11-29T11:31:42.531Z,3.68
2022-11-29T11:37:23.185Z,3.68
2022-11-29T11:42:45.415Z,3.79
2022-11-29T11:48:15.072Z,3.87
2022-11-29T11:53:37.950Z,3.86
2022-11-29T11:59:00.339Z,3.74
2022-11-29T12:04:30.338Z,3.77
2022-11-29T12:09:56.136Z,3.82
2022-11-29T12:15:22.860Z,3.94
2022-11-29T12:21:05.726Z,4.07
2022-11-29T12:26:56.419Z,4.25
2022-11-29T12:32:41.922Z,4.30
2022-11-29T12:38:32.899Z,4.19
2022-11-29T12:44:13.556Z,4.21
2022-11-29T12:49:54.187Z,4.22
2022-11-29T12:55:32.901Z,4.17
2022-11-29T13:01:19.049Z,4.18
2022-11-29T13:06:51.620Z,4.09
2022-11-29T13:12:35.722Z,3.99
2022-11-29T13:18:01.370Z,3.95
2022-11-29T13:29:26.473Z,3.79
2022-11-29T13:34:49.243Z,3.78
2022-11-29T13:40:23.978Z,3.74
2022-11-29T13:46:09.429Z,3.67
2022-11-29T13:51:37.512Z,3.60
2022-11-29T13:57:07.900Z,3.58
2022-11-29T14:02:31.705Z,3.54
2022-11-29T14:08:55.066Z,3.48
2022-11-29T14:14:15.779Z,3.47
2022-11-29T14:19:37.367Z,3.45
2022-11-29T14:25:01.144Z,3.47
2022-11-29T14:30:31.908Z,3.48
2022-11-29T14:36:17.607Z,3.43
2022-11-29T14:41:45.633Z,3.31
2022-11-29T14:47:17.770Z,3.22
2022-11-29T14:52:40.994Z,3.12
2022-11-29T14:58:06.348Z,3.05
2022-11-29T15:03:29.546Z,3.03
2022-11-29T15:09:01.060Z,3.03
2022-11-29T15:14:25.803Z,3.04
2022-11-29T15:20:15.400Z,3.18
2022-11-29T15:25:46.689Z,3.32
2022-11-29T15:31:10.348Z,3.37
2022-11-29T15:36:32.092Z,3.34
2022-11-29T15:41:59.999Z,3.27
2022-11-29T15:47:26.347Z,3.12
2022-11-29T15:52:48.576Z,2.81
2022-11-29T15:58:12.893Z,2.47
2022-11-29T16:03:39.009Z,2.25
2022-11-29T16:09:01.862Z,2.07
2022-11-29T16:14:28.451Z,2.03
2022-11-29T16:19:50.238Z,2.09
2022-11-29T16:25:17.749Z,2.15
2022-11-29T16:30:42.076Z,2.01
2022-11-29T16:36:19.518Z,1.83
2022-11-29T16:41:41.641Z,1.63
2022-11-29T16:47:16.444Z,1.46
2022-11-29T16:52:38.646Z,1.26
2022-11-29T16:58:00.275Z,1.20
2022-11-29T17:03:22.810Z,1.12
2022-11-29T17:08:45.534Z,0.98
2022-11-29T17:14:08.546Z,0.86
2022-11-29T17:19:31.201Z,0.69
2022-11-29T17:24:53.711Z,0.55
2022-11-29T17:30:15.972Z,0.44
2022-11-29T17:35:38.093Z,0.39
2022-11-29T17:41:00.025Z,0.30
2022-11-29T17:46:25.214Z,0.18
2022-11-29T17:51:52.151Z,0.07
2022-11-29T17:57:14.900Z,-0.08
2022-11-29T18:02:36.910Z,-0.09
2022-11-29T18:07:59.426Z,-0.07
2022-11-29T18:13:21.632Z,-0.09
2022-11-29T18:18:43.868Z,-0.10
2022-11-29T18:24:06.753Z,-0.15
2022-11-29T18:29:32.777Z,-0.21
2022-11-29T18:35:01.895Z,-0.24
2022-11-29T18:40:23.724Z,-0.16
2022-11-29T18:45:45.636Z,-0.17
2022-11-29T18:51:11.007Z,-0.12
2022-11-29T18:56:34.631Z,-0.13
2022-11-29T19:01:57.016Z,-0.19
2022-11-29T19:07:18.791Z,-0.22
2022-11-29T19:12:40.617Z,-0.05
2022-11-29T19:18:02.247Z,-0.01
2022-11-29T19:23:24.475Z,-0.06
2022-11-29T19:28:46.673Z,-0.07
2022-11-29T19:34:08.783Z,-0.03
2022-11-29T19:39:34.026Z,0.03
2022-11-29T19:50:38.376Z,-0.21
2022-11-29T19:56:05.305Z,-0.20
2022-11-29T20:01:37.725Z,-0.07
2022-11-29T20:07:02.744Z,0.11
2022-11-29T20:12:24.432Z,0.10
2022-11-29T20:17:46.521Z,0.00
2022-11-29T20:23:08.551Z,-0.10
2022-11-29T20:28:30.804Z,-0.13
2022-11-29T20:33:54.417Z,-0.07
2022-11-29T20:39:25.633Z,-0.01
2022-11-29T20:44:58.214Z,0.01
2022-11-29T20:50:24.097Z,0.06
2022-11-29T20:55:48.525Z,0.36
2022-11-29T21:01:10.627Z,0.46
2022-11-29T21:06:37.248Z,0.40
2022-11-29T21:11:59.687Z,0.27
2022-11-29T21:17:22.636Z,0.26
2022-11-29T21:22:47.204Z,0.47
2022-11-29T21:28:12.424Z,0.69
2022-11-29T21:33:34.777Z,0.60
2022-11-29T21:38:58.753Z,0.45
2022-11-29T21:44:22.553Z,0.37
2022-11-29T21:49:45.127Z,0.52
2022-11-29T21:55:07.616Z,0.52
2022-11-29T22:00:34.435Z,0.48
2022-11-29T22:06:06.429Z,0.31
2022-11-29T22:11:31.240Z,0.22
2022-11-29T22:17:00.555Z,0.18
2022-11-29T22:22:25.960Z,0.27
2022-11-29T22:27:50.498Z,0.31
2022-11-29T22:33:13.628Z,0.26
2022-11-29T22:38:36.170Z,0.30
2022-11-29T22:43:58.293Z,0.34
2022-11-29T22:49:20.041Z,0.35
2022-11-29T22:54:42.152Z,0.26
2022-11-29T23:00:07.393Z,0.20
2022-11-29T23:05:32.248Z,0.26
2022-11-29T23:10:56.712Z,0.36
2022-11-29T23:16:21.814Z,0.49
2022-11-29T23:21:45.943Z,0.43
2022-11-29T23:27:07.782Z,0.32
2022-11-29T23:32:30.299Z,0.21
2022-11-29T23:37:52.008Z,0.18
2022-11-29T23:43:14.029Z,0.16
2022-11-29T23:48:36.135Z,0.27
2022-11-29T23:53:57.929Z,0.49
2022-11-29T23:59:20.056Z,0.44
